Time;durP1;ratioP1;P1;durP2;ratioP2;P2;SDS_P1;SDS_P2;PMS_P1;PMS_P2;Temp;Humidity;BMP_temperature;BMP_pressure;BME280_temperature;BME280_humidity;BME280_pressure;Samples;Min_cycle;Max_cycle;Signal;HPM_P1;HPM_P2
2023/06/17 05:12:37;;;;;;;10.00;9.70;;;13.70;99.90;;;;;;4905360;29;20241;-86
2023/06/17 05:18:11;;;;;;;10.00;9.70;;;13.80;99.90;;;;;;4902868;29;20260;-84
2023/06/17 05:21:14;;;;;;;9.90;9.60;;;13.90;99.90;;;;;;4906743;29;20261;-85
2023/06/17 05:26:43;;;;;;;10.10;9.80;;;14.10;99.90;;;;;;4907275;29;20216;-86
2023/06/17 05:32:39;;;;;;;10.00;9.70;;;14.30;99.90;;;;;;4906429;29;20233;-85
2023/06/17 05:38:05;;;;;;;10.18;9.88;;;14.50;99.90;;;;;;4917460;28;20208;-84
2023/06/17 05:40:33;;;;;;;10.45;10.15;;;14.70;99.90;;;;;;4924588;28;20228;-81
2023/06/17 05:43:12;;;;;;;10.20;9.90;;;14.90;99.90;;;;;;4924959;28;20206;-83
2023/06/17 05:46:09;;;;;;;10.20;9.90;;;15.00;99.90;;;;;;4921921;28;20235;-85
2023/06/17 05:48:54;;;;;;;10.30;10.00;;;15.20;99.90;;;;;;4913387;29;20229;-83
2023/06/17 05:54:53;;;;;;;10.40;10.10;;;15.60;99.90;;;;;;4859345;29;20231;-83
2023/06/17 06:04:12;;;;;;;10.65;10.35;;;16.20;99.90;;;;;;4905480;29;20228;-86
2023/06/17 06:07:00;;;;;;;10.55;10.25;;;16.40;99.90;;;;;;4907474;29;20253;-84
2023/06/17 06:10:07;;;;;;;;;;;;;;;;;;;;;
2023/06/17 06:23:08;;;;;;;10.80;10.50;;;16.90;99.90;;;;;;4829030;29;20239;-85
2023/06/17 06:30:20;;;;;;;10.80;10.50;;;17.30;99.90;;;;;;4881490;29;20262;-85
2023/06/17 06:33:35;;;;;;;;;;;;;;;;;;;;;
2023/06/17 06:36:32;;;;;;;11.00;10.70;;;17.90;99.90;;;;;;4905857;29;20240;-85
2023/06/17 06:39:12;;;;;;;10.80;10.50;;;18.10;99.90;;;;;;4906175;29;20240;-83
2023/06/17 06:41:42;;;;;;;11.00;10.70;;;18.30;99.90;;;;;;4905606;29;20278;-83
2023/06/17 06:44:18;;;;;;;11.35;11.05;;;18.40;99.90;;;;;;4905341;29;20403;-87
2023/06/17 06:46:49;;;;;;;10.82;10.52;;;18.60;99.90;;;;;;4906193;29;20240;-84
2023/06/17 06:57:36;;;;;;;;;;;;;;;;;;;;;
2023/06/17 07:05:19;;;;;;;10.68;10.38;;;19.20;99.90;;;;;;4905191;29;20232;-84
2023/06/17 07:10:30;;;;;;;10.50;10.20;;;19.40;99.90;;;;;;4904080;29;20227;-83
2023/06/17 07:12:59;;;;;;;10.85;10.55;;;19.40;99.90;;;;;;4909586;29;20236;-83
2023/06/17 07:15:32;;;;;;;10.63;10.32;;;19.50;99.90;;;;;;4907900;29;20311;-85
2023/06/17 07:18:00;;;;;;;10.70;10.40;;;19.70;99.90;;;;;;4904927;29;20275;-84
2023/06/17 07:23:42;;;;;;;10.80;10.50;;;19.90;99.90;;;;;;4917670;29;20240;-85
2023/06/17 07:26:13;;;;;;;10.63;10.32;;;19.90;99.90;;;;;;4904042;29;20298;-85
2023/06/17 07:28:43;;;;;;;10.88;10.57;;;20.00;99.90;;;;;;4915711;29;20232;-86
2023/06/17 07:31:12;;;;;;;10.80;10.50;;;20.10;99.90;;;;;;4916648;29;20244;-85
2023/06/17 07:33:49;;;;;;;10.70;10.40;;;20.20;99.90;;;;;;4899486;29;20281;-84
2023/06/17 07:36:44;;;;;;;11.15;10.85;;;20.30;99.90;;;;;;4918613;29;20279;-84
2023/06/17 07:39:15;;;;;;;10.80;10.50;;;20.30;99.90;;;;;;4916097;29;20260;-85
2023/06/17 07:41:45;;;;;;;10.90;10.60;;;20.40;99.90;;;;;;4914118;29;20750;-83
2023/06/17 07:44:13;;;;;;;11.18;10.88;;;20.70;99.90;;;;;;4915367;29;20264;-84
2023/06/17 07:46:42;;;;;;;10.95;10.65;;;20.80;99.90;;;;;;4909763;29;20232;-84
2023/06/17 07:49:29;;;;;;;11.00;10.70;;;21.10;99.90;;;;;;4910091;29;20300;-85
2023/06/17 07:52:44;;;;;;;11.02;10.73;;;21.30;99.90;;;;;;4908585;29;20236;-86
2023/06/17 07:58:41;;;;;;;11.05;10.75;;;21.60;99.90;;;;;;4923162;29;20283;-84
2023/06/17 08:01:22;;;;;;;10.93;10.63;;;21.90;99.90;;;;;;4924454;28;20273;-82
2023/06/17 08:03:51;;;;;;;11.18;10.88;;;22.00;99.90;;;;;;4920161;29;20223;-80
2023/06/17 08:06:41;;;;;;;;;;;;;;;;;;;;;
2023/06/17 08:09:18;;;;;;;10.80;10.50;;;22.40;99.90;;;;;;4906353;29;20257;-82
2023/06/17 08:11:47;;;;;;;10.88;10.57;;;22.50;99.90;;;;;;4908018;29;20280;-82
2023/06/17 08:14:15;;;;;;;10.57;10.27;;;22.60;99.90;;;;;;4910624;29;20234;-83
2023/06/17 08:16:45;;;;;;;10.57;10.27;;;22.60;99.90;;;;;;4927159;29;20266;-82
2023/06/17 08:19:16;;;;;;;10.77;10.48;;;22.50;99.90;;;;;;4927302;29;20354;-82
2023/06/17 08:21:45;;;;;;;10.90;10.60;;;22.40;99.90;;;;;;4914780;29;20285;-85
2023/06/17 08:24:34;;;;;;;11.10;10.80;;;22.50;99.90;;;;;;4908412;29;20244;-84
2023/06/17 08:27:10;;;;;;;10.70;10.40;;;22.60;99.90;;;;;;4912565;29;20299;-84
2023/06/17 08:29:39;;;;;;;10.80;10.50;;;22.70;99.90;;;;;;4905561;29;20243;-85
2023/06/17 08:32:08;;;;;;;10.82;10.52;;;23.00;99.90;;;;;;4910828;29;20231;-81
2023/06/17 08:34:38;;;;;;;10.85;10.55;;;23.20;99.90;;;;;;4917428;29;20235;-84
2023/06/17 08:37:08;;;;;;;11.00;10.70;;;23.40;99.90;;;;;;4936034;29;20243;-83
2023/06/17 08:39:46;;;;;;;10.95;10.65;;;23.40;99.90;;;;;;4939776;29;20220;-83
2023/06/17 08:42:15;;;;;;;11.00;10.70;;;23.60;99.90;;;;;;4940200;29;20238;-82
2023/06/17 08:44:45;;;;;;;10.85;10.55;;;23.70;99.90;;;;;;4940531;29;20247;-83
2023/06/17 08:47:16;;;;;;;11.00;10.70;;;24.00;99.90;;;;;;4935611;28;20247;-81
2023/06/17 08:49:45;;;;;;;11.07;10.77;;;24.10;99.90;;;;;;4934596;29;20258;-83
2023/06/17 08:52:15;;;;;;;10.93;10.63;;;24.40;99.90;;;;;;4918649;29;20328;-83
2023/06/17 08:54:52;;;;;;;11.13;10.82;;;24.50;99.90;;;;;;4909576;29;20252;-83
2023/06/17 08:57:20;;;;;;;10.73;10.43;;;24.70;99.90;;;;;;4909507;29;20248;-82
2023/06/17 08:59:51;;;;;;;10.95;10.65;;;24.70;99.90;;;;;;4907975;29;20240;-82
2023/06/17 09:02:19;;;;;;;10.90;10.60;;;24.70;99.90;;;;;;4909195;29;20228;-82
2023/06/17 09:04:48;;;;;;;10.57;10.27;;;24.70;99.90;;;;;;4922577;29;20272;-79
2023/06/17 09:07:19;;;;;;;10.57;10.27;;;24.70;99.90;;;;;;4921892;29;20235;-82
2023/06/17 09:10:05;;;;;;;10.50;10.20;;;24.80;99.90;;;;;;4912194;29;20256;-83
2023/06/17 09:12:44;;;;;;;10.20;9.90;;;25.00;99.90;;;;;;4907582;29;20244;-84
2023/06/17 09:15:23;;;;;;;10.50;10.20;;;24.80;99.90;;;;;;4905743;29;20243;-84
2023/06/17 09:17:53;;;;;;;10.60;10.30;;;24.80;99.90;;;;;;4907654;29;20401;-82
2023/06/17 09:20:21;;;;;;;10.50;10.20;;;25.10;99.90;;;;;;4907248;29;20319;-83
2023/06/17 09:22:50;;;;;;;10.32;10.02;;;25.10;99.90;;;;;;4907012;29;20268;-83
2023/06/17 09:25:31;;;;;;;10.57;10.27;;;24.90;99.90;;;;;;4908232;29;20237;-84
2023/06/17 09:27:58;;;;;;;10.70;10.40;;;25.00;99.90;;;;;;4908626;29;20340;-83
2023/06/17 09:30:27;;;;;;;10.60;10.30;;;25.00;99.90;;;;;;4907055;29;20240;-84
2023/06/17 09:32:56;;;;;;;10.50;10.20;;;25.20;99.90;;;;;;4907510;29;20271;-84
2023/06/17 09:35:26;;;;;;;10.60;10.30;;;25.50;99.90;;;;;;4906186;29;20232;-85
2023/06/17 09:37:55;;;;;;;10.45;10.15;;;25.60;99.90;;;;;;4906732;29;20235;-84
2023/06/17 09:40:35;;;;;;;10.60;10.30;;;26.00;99.90;;;;;;4906873;29;20318;-84
2023/06/17 09:43:05;;;;;;;10.38;10.07;;;25.60;99.90;;;;;;4916698;29;20287;-84
2023/06/17 09:45:33;;;;;;;10.38;10.07;;;25.20;99.90;;;;;;4908935;29;20296;-84
2023/06/17 09:48:02;;;;;;;10.48;10.18;;;25.00;99.90;;;;;;4908200;29;20245;-84
2023/06/17 09:50:32;;;;;;;10.48;10.18;;;24.70;99.90;;;;;;4908396;29;20244;-83
2023/06/17 09:53:02;;;;;;;10.50;10.20;;;25.00;99.90;;;;;;4908358;29;20304;-84
2023/06/17 09:55:39;;;;;;;10.57;10.27;;;25.30;99.90;;;;;;4907618;29;20306;-84
2023/06/17 09:58:11;;;;;;;10.25;9.95;;;25.40;99.90;;;;;;4909204;29;20223;-85
2023/06/17 10:00:43;;;;;;;10.35;10.05;;;25.50;99.90;;;;;;4906571;29;20246;-86
2023/06/17 10:03:11;;;;;;;10.25;9.95;;;25.60;99.90;;;;;;4901256;29;20250;-83
2023/06/17 10:05:39;;;;;;;10.52;10.23;;;25.70;99.90;;;;;;4914964;29;20237;-84
2023/06/17 10:08:09;;;;;;;10.10;9.80;;;25.70;99.90;;;;;;4920668;29;20240;-84
2023/06/17 10:10:39;;;;;;;10.20;9.90;;;25.30;99.90;;;;;;4924550;29;20247;-84
2023/06/17 10:13:09;;;;;;;10.45;10.15;;;25.00;99.90;;;;;;4925815;29;20238;-84
2023/06/17 10:15:43;;;;;;;10.35;10.05;;;25.00;99.90;;;;;;4932942;29;20279;-84
2023/06/17 10:18:19;;;;;;;10.55;10.25;;;25.50;99.90;;;;;;4943447;28;20227;-80
2023/06/17 10:20:54;;;;;;;10.70;10.40;;;25.90;99.90;;;;;;4943485;28;20234;-80
2023/06/17 10:23:24;;;;;;;10.80;10.50;;;26.30;99.90;;;;;;4941231;28;20215;-84
2023/06/17 10:26:02;;;;;;;10.70;10.40;;;26.20;99.90;;;;;;4925833;29;20252;-84
2023/06/17 10:28:48;;;;;;;10.25;9.95;;;26.00;99.90;;;;;;4925077;29;20246;-83
2023/06/17 10:31:26;;;;;;;10.13;9.82;;;25.20;99.90;;;;;;4924252;29;20274;-81
2023/06/17 10:33:57;;;;;;;9.90;9.60;;;25.20;99.90;;;;;;4925116;29;20219;-82
2023/06/17 10:36:27;;;;;;;10.15;9.85;;;25.10;99.90;;;;;;4924968;29;20236;-84
2023/06/17 10:39:04;;;;;;;10.02;9.73;;;25.10;99.90;;;;;;4924432;29;20235;-84
2023/06/17 10:42:00;;;;;;;9.95;9.65;;;25.00;99.90;;;;;;4924652;29;20243;-84
2023/06/17 10:44:40;;;;;;;10.40;10.10;;;25.00;99.90;;;;;;4927310;29;20227;-81
2023/06/17 10:47:25;;;;;;;10.43;10.13;;;25.50;99.90;;;;;;4932159;29;20303;-83
2023/06/17 10:49:55;;;;;;;10.20;9.90;;;26.10;99.90;;;;;;4929702;29;20239;-85
2023/06/17 10:52:23;;;;;;;10.60;10.30;;;26.40;99.90;;;;;;4925841;29;20239;-85
2023/06/17 10:54:55;;;;;;;10.90;10.60;;;26.90;99.90;;;;;;4924647;29;20259;-85
2023/06/17 10:57:39;;;;;;;10.90;10.60;;;27.50;99.90;;;;;;4923881;29;21021;-85
2023/06/17 11:00:10;;;;;;;10.70;10.40;;;27.80;99.90;;;;;;4924037;29;20243;-82
2023/06/17 11:02:38;;;;;;;10.50;10.20;;;27.30;99.90;;;;;;4914796;29;20236;-82
2023/06/17 11:05:08;;;;;;;10.40;10.10;;;26.70;99.90;;;;;;4916607;29;20235;-84
2023/06/17 11:07:37;;;;;;;10.70;10.40;;;26.60;99.90;;;;;;4907798;29;20253;-82
2023/06/17 11:10:07;;;;;;;10.38;10.07;;;27.00;99.90;;;;;;4904033;29;20292;-83
2023/06/17 11:23:00;;;;;;;10.63;10.32;;;28.30;99.90;;;;;;4930499;29;20243;-81
2023/06/17 11:25:47;;;;;;;10.93;10.63;;;28.30;99.90;;;;;;4932136;29;20223;-86
2023/06/17 11:28:27;;;;;;;11.15;10.85;;;28.60;99.90;;;;;;4932066;29;20248;-82
2023/06/17 11:30:58;;;;;;;10.63;10.32;;;28.90;99.90;;;;;;4932255;29;20234;-83
2023/06/17 11:33:28;;;;;;;10.85;10.55;;;29.30;99.90;;;;;;4937844;29;20227;-88
2023/06/17 11:35:56;;;;;;;10.85;10.55;;;29.40;99.90;;;;;;4934434;29;20271;-80
2023/06/17 11:38:33;;;;;;;10.32;10.02;;;28.80;99.90;;;;;;4932480;29;20233;-77
2023/06/17 11:41:01;;;;;;;10.60;10.30;;;28.60;99.90;;;;;;4930404;29;20243;-80
2023/06/17 11:43:32;;;;;;;10.43;10.13;;;28.20;99.90;;;;;;4929268;29;20251;-79
2023/06/17 12:06:43;;;;;;;10.68;10.38;;;29.40;99.90;;;;;;4946740;28;20767;-89
2023/06/17 12:59:26;;;;;;;10.15;9.85;;;29.30;99.90;;;;;;4939979;29;20265;-81
2023/06/17 13:01:55;;;;;;;10.13;9.82;;;29.50;99.90;;;;;;4950959;29;20234;-79
2023/06/17 13:04:25;;;;;;;10.27;9.98;;;29.40;99.90;;;;;;4950901;29;20308;-80
2023/06/17 13:07:00;;;;;;;10.27;9.98;;;29.40;99.90;;;;;;4949038;29;20242;-86
2023/06/17 13:09:46;;;;;;;10.32;10.02;;;28.90;99.90;;;;;;4940733;28;20243;-85
2023/06/17 13:16:26;;;;;;;10.63;10.32;;;29.70;99.90;;;;;;4861320;29;20284;-88
2023/06/17 13:19:13;;;;;;;10.70;10.40;;;30.30;99.90;;;;;;4930997;29;20292;-88
2023/06/17 13:22:31;;;;;;;10.48;10.18;;;30.70;99.90;;;;;;4936680;28;20234;-87
2023/06/17 13:28:55;;;;;;;10.43;10.13;;;29.60;99.90;;;;;;4886851;29;20265;-88
2023/06/17 13:51:45;;;;;;;10.55;10.25;;;29.20;99.90;;;;;;4791269;29;20235;-89
2023/06/17 13:57:18;;;;;;;10.35;10.05;;;30.10;99.90;;;;;;4845286;29;20238;-88
2023/06/17 17:14:43;;;;;;;10.02;9.73;;;31.30;92.50;;;;;;4962541;28;20266;-83
2023/06/17 17:17:12;;;;;;;10.15;9.85;;;31.50;93.00;;;;;;4948486;28;20239;-85
2023/06/17 17:19:43;;;;;;;10.13;9.82;;;31.70;93.10;;;;;;4951210;28;20266;-85
2023/06/17 17:22:12;;;;;;;9.90;9.60;;;31.70;92.80;;;;;;4946087;29;20227;-85
2023/06/17 17:24:42;;;;;;;10.10;9.80;;;31.60;92.30;;;;;;4946048;29;20263;-85
2023/06/17 17:27:10;;;;;;;10.02;9.73;;;31.60;92.10;;;;;;4945131;28;20243;-85
2023/06/17 17:29:42;;;;;;;10.18;9.88;;;31.50;91.80;;;;;;4950113;29;20245;-85
2023/06/17 17:32:10;;;;;;;10.10;9.80;;;31.50;91.90;;;;;;4944448;29;20231;-85
2023/06/17 17:34:39;;;;;;;10.00;9.70;;;31.50;92.00;;;;;;4944642;28;20238;-85
2023/06/17 17:37:08;;;;;;;10.10;9.80;;;31.20;91.90;;;;;;4947925;29;20245;-85
2023/06/17 17:39:38;;;;;;;10.20;9.90;;;30.80;92.00;;;;;;4947184;29;20238;-85
2023/06/17 17:42:07;;;;;;;10.10;9.80;;;30.40;92.00;;;;;;4944899;29;20235;-85
2023/06/17 17:44:36;;;;;;;10.10;9.80;;;30.40;92.40;;;;;;4945228;29;20234;-85
2023/06/17 17:47:17;;;;;;;10.20;9.90;;;30.10;91.90;;;;;;4945601;28;20231;-86
2023/06/17 17:49:45;;;;;;;10.25;9.95;;;30.30;92.20;;;;;;4946130;29;20238;-85
2023/06/17 17:52:14;;;;;;;10.20;9.90;;;30.10;91.80;;;;;;4954488;28;20234;-86
2023/06/17 17:54:43;;;;;;;10.05;9.75;;;30.20;92.30;;;;;;4947566;29;20242;-86
2023/06/17 17:57:12;;;;;;;10.20;9.90;;;30.10;92.00;;;;;;4946471;28;20238;-86
2023/06/17 17:59:42;;;;;;;10.07;9.77;;;30.20;92.30;;;;;;4946279;29;20241;-85
2023/06/17 18:02:22;;;;;;;10.30;10.00;;;30.20;92.60;;;;;;4946126;29;20262;-86
2023/06/17 18:04:49;;;;;;;10.27;9.98;;;30.10;92.10;;;;;;4946553;29;20290;-86
2023/06/17 18:07:20;;;;;;;10.30;10.00;;;30.00;92.50;;;;;;4945466;29;20294;-85
2023/06/17 18:09:48;;;;;;;10.18;9.88;;;29.70;92.70;;;;;;4945411;29;20226;-85
2023/06/17 18:12:18;;;;;;;10.20;9.90;;;29.50;92.80;;;;;;4945313;29;20227;-84
2023/06/17 18:14:48;;;;;;;10.27;9.98;;;29.20;92.80;;;;;;4945365;29;20239;-86
2023/06/17 18:17:28;;;;;;;10.15;9.85;;;29.10;93.20;;;;;;4950204;29;20254;-85
2023/06/17 18:19:57;;;;;;;10.30;10.00;;;29.10;93.30;;;;;;4948580;29;20270;-86
2023/06/17 18:22:26;;;;;;;10.20;9.90;;;28.90;93.40;;;;;;4946271;29;20275;-86
2023/06/17 18:24:56;;;;;;;10.07;9.77;;;28.80;93.20;;;;;;4944627;29;20314;-85
2023/06/17 18:27:25;;;;;;;10.15;9.85;;;28.70;93.60;;;;;;4944606;29;20267;-85
2023/06/17 18:29:54;;;;;;;9.95;9.65;;;28.70;93.80;;;;;;4943741;29;20235;-85
2023/06/17 18:32:33;;;;;;;10.15;9.85;;;28.70;94.50;;;;;;4943865;29;20222;-86
2023/06/17 18:35:02;;;;;;;10.35;10.05;;;28.70;94.40;;;;;;4944548;29;20238;-85
2023/06/17 18:37:31;;;;;;;10.10;9.80;;;28.70;94.80;;;;;;4944254;29;20317;-86
2023/06/17 18:40:02;;;;;;;10.40;10.10;;;28.60;95.40;;;;;;4944124;28;20250;-86
2023/06/17 18:42:30;;;;;;;10.20;9.90;;;28.40;95.10;;;;;;4943943;29;20234;-84
2023/06/17 18:45:00;;;;;;;10.30;10.00;;;28.20;95.20;;;;;;4943569;29;20235;-85
2023/06/17 18:47:39;;;;;;;10.15;9.85;;;28.10;95.80;;;;;;4944125;29;20245;-86
2023/06/17 18:50:09;;;;;;;10.23;9.93;;;27.90;95.90;;;;;;4943804;29;20246;-86
2023/06/17 18:52:38;;;;;;;10.13;9.82;;;27.50;95.80;;;;;;4943740;29;20271;-85
2023/06/17 18:55:07;;;;;;;10.15;9.85;;;27.40;96.40;;;;;;4944006;29;20239;-86
2023/06/17 18:57:36;;;;;;;10.52;10.23;;;27.20;96.40;;;;;;4943697;29;20298;-86
2023/06/17 19:00:06;;;;;;;10.45;10.15;;;27.00;96.80;;;;;;4942700;29;20242;-85
2023/06/17 19:05:22;;;;;;;10.52;10.23;;;26.70;97.20;;;;;;4939182;29;20259;-89
2023/06/17 19:08:37;;;;;;;10.45;10.15;;;26.60;97.40;;;;;;4945341;28;20238;-92
2023/06/17 19:14:03;;;;;;;10.35;10.05;;;26.20;98.30;;;;;;4941820;29;20322;-90
2023/06/17 19:17:43;;;;;;;10.40;10.10;;;26.00;98.40;;;;;;4943724;29;20234;-90
2023/06/17 20:19:41;;;;;;;10.00;9.70;;;22.30;99.90;;;;;;4943066;29;20484;-85
2023/06/17 20:22:21;;;;;;;9.80;9.50;;;22.20;99.90;;;;;;4945277;29;20243;-86
2023/06/17 20:24:57;;;;;;;9.85;9.55;;;22.20;99.90;;;;;;4945177;29;20258;-87
2023/06/17 20:27:47;;;;;;;;;;;;;;;;;;;;;
2023/06/17 20:37:25;;;;;;;9.70;9.40;;;21.80;99.90;;;;;;4910204;28;20290;-86
2023/06/17 20:39:54;;;;;;;9.52;9.23;;;21.70;99.90;;;;;;4956886;29;20256;-86
2023/06/17 20:42:39;;;;;;;9.93;9.63;;;21.60;99.90;;;;;;4957817;28;20245;-89
2023/06/17 20:58:48;;;;;;;9.88;9.57;;;21.40;99.90;;;;;;5180640;27;20546;-87
2023/06/17 21:01:19;;;;;;;10.10;9.80;;;20.80;99.90;;;;;;5162498;27;20247;-86
2023/06/17 21:07:41;;;;;;;9.63;9.32;;;20.60;99.90;;;;;;5160243;27;20224;-88
2023/06/17 21:10:33;;;;;;;9.68;9.38;;;20.50;99.90;;;;;;5155166;27;20231;-88
2023/06/17 21:13:03;;;;;;;9.70;9.40;;;20.30;99.90;;;;;;5162648;27;20251;-87
2023/06/17 21:16:11;;;;;;;9.80;9.50;;;20.20;99.90;;;;;;5160728;27;20310;-88
2023/06/17 21:18:56;;;;;;;9.90;9.60;;;20.20;99.90;;;;;;5145121;27;20231;-87
2023/06/17 21:28:26;;;;;;;9.70;9.40;;;19.80;99.90;;;;;;5162940;27;20239;-88
2023/06/17 21:30:56;;;;;;;10.00;9.70;;;19.60;99.90;;;;;;5169143;27;20219;-87
2023/06/17 21:33:24;;;;;;;9.60;9.30;;;19.50;99.90;;;;;;5159739;27;20262;-86
2023/06/17 21:35:51;;;;;;;9.80;9.50;;;19.50;99.90;;;;;;5158508;27;20228;-87
2023/06/17 21:38:21;;;;;;;9.95;9.65;;;19.40;99.90;;;;;;5160802;27;20286;-87
2023/06/17 21:40:51;;;;;;;9.90;9.60;;;19.30;99.90;;;;;;5177610;27;20245;-88
2023/06/17 21:43:22;;;;;;;9.80;9.50;;;19.20;99.90;;;;;;5176316;27;20251;-88
2023/06/17 21:45:58;;;;;;;9.80;9.50;;;19.20;99.90;;;;;;5171143;27;20220;-87
2023/06/17 21:48:28;;;;;;;9.77;9.48;;;19.10;99.90;;;;;;5158733;27;20310;-86
2023/06/17 21:50:57;;;;;;;10.25;9.95;;;19.00;99.90;;;;;;5158989;27;20233;-86
2023/06/17 21:53:30;;;;;;;10.10;9.80;;;18.90;99.90;;;;;;5159343;27;20234;-86
2023/06/17 21:55:57;;;;;;;9.73;9.43;;;18.80;99.90;;;;;;5164979;27;20239;-85
2023/06/17 21:58:25;;;;;;;9.63;9.32;;;18.70;99.90;;;;;;5152850;27;20328;-86
2023/06/17 22:03:42;;;;;;;9.77;9.48;;;18.40;99.90;;;;;;5145402;27;20306;-86
2023/06/17 22:06:11;;;;;;;9.80;9.50;;;18.30;99.90;;;;;;5145178;27;20232;-84
2023/06/17 22:08:41;;;;;;;10.00;9.70;;;18.10;99.90;;;;;;5144967;27;20239;-82
2023/06/17 22:11:10;;;;;;;9.85;9.55;;;18.00;99.90;;;;;;5145648;27;20216;-85
2023/06/17 22:13:39;;;;;;;9.80;9.50;;;17.90;99.90;;;;;;5145741;27;20228;-86
2023/06/17 22:16:18;;;;;;;9.90;9.60;;;17.80;99.90;;;;;;5146840;27;20228;-85
2023/06/17 22:18:50;;;;;;;9.98;9.68;;;17.60;99.90;;;;;;5147726;27;20404;-85
2023/06/17 22:21:19;;;;;;;10.10;9.80;;;17.60;99.90;;;;;;5159406;27;20213;-84
2023/06/17 22:23:47;;;;;;;10.05;9.75;;;17.50;99.90;;;;;;5156163;27;20292;-85
2023/06/17 22:26:17;;;;;;;10.18;9.88;;;17.50;99.90;;;;;;5156518;27;20285;-85
2023/06/17 22:28:47;;;;;;;10.20;9.90;;;17.40;99.90;;;;;;5147412;27;20227;-84
2023/06/17 22:31:18;;;;;;;10.10;9.80;;;17.40;99.90;;;;;;5145986;27;20235;-85
2023/06/17 22:33:46;;;;;;;10.27;9.98;;;17.30;99.90;;;;;;5136875;27;20232;-85
2023/06/17 22:36:16;;;;;;;10.18;9.88;;;17.20;99.90;;;;;;5145358;27;20224;-85
2023/06/17 22:38:44;;;;;;;10.00;9.70;;;17.10;99.90;;;;;;5145320;27;20228;-85
2023/06/17 22:41:15;;;;;;;9.93;9.63;;;17.00;99.90;;;;;;5144380;27;20231;-85
2023/06/17 22:43:44;;;;;;;9.98;9.68;;;17.00;99.90;;;;;;5144927;27;20263;-85
2023/06/17 22:46:13;;;;;;;9.80;9.50;;;16.90;99.90;;;;;;5149905;27;20227;-85
2023/06/17 22:49:03;;;;;;;;;;;;;;;;;;;;;
2023/06/17 22:51:31;;;;;;;10.00;9.70;;;16.80;99.90;;;;;;5143597;27;20224;-85
2023/06/17 22:53:58;;;;;;;9.82;9.52;;;16.90;99.90;;;;;;5144342;27;20258;-85
2023/06/17 22:56:28;;;;;;;9.80;9.50;;;16.80;99.90;;;;;;5144523;27;20224;-85
2023/06/17 22:59:14;;;;;;;9.52;9.23;;;16.90;99.90;;;;;;5144324;27;20236;-85
2023/06/17 23:01:46;;;;;;;9.52;9.23;;;16.90;99.90;;;;;;5143659;27;20228;-85
2023/06/17 23:04:16;;;;;;;10.02;9.73;;;16.90;99.90;;;;;;5143897;27;20251;-86
2023/06/17 23:06:44;;;;;;;9.52;9.23;;;16.90;99.90;;;;;;5144367;27;20265;-85
2023/06/17 23:09:13;;;;;;;9.88;9.57;;;16.90;99.90;;;;;;5144105;27;20236;-85
